sensor_id;sensor_type;location;lat;lon;timestamp;P1;durP1;ratioP1;P2;durP2;ratioP2
45642;SDS011;31358;46.008;11.144;2022-11-18T00:00:47;6.05;;;3.63;;
45642;SDS011;31358;46.008;11.144;2022-11-18T00:03:13;7.78;;;3.85;;
45642;SDS011;31358;46.008;11.144;2022-11-18T00:05:38;5.38;;;3.72;;
45642;SDS011;31358;46.008;11.144;2022-11-18T00:08:04;7.10;;;3.42;;
45642;SDS011;31358;46.008;11.144;2022-11-18T00:10:30;6.35;;;3.92;;
45642;SDS011;31358;46.008;11.144;2022-11-18T00:12:56;6.25;;;3.85;;
45642;SDS011;31358;46.008;11.144;2022-11-18T00:15:40;7.25;;;3.47;;
45642;SDS011;31358;46.008;11.144;2022-11-18T00:18:05;8.60;;;3.95;;
45642;SDS011;31358;46.008;11.144;2022-11-18T00:20:32;6.70;;;4.00;;
45642;SDS011;31358;46.008;11.144;2022-11-18T00:22:58;8.52;;;4.00;;
45642;SDS011;31358;46.008;11.144;2022-11-18T00:25:24;9.90;;;4.63;;
45642;SDS011;31358;46.008;11.144;2022-11-18T00:27:49;8.23;;;4.03;;
45642;SDS011;31358;46.008;11.144;2022-11-18T00:30:15;8.93;;;4.40;;
45642;SDS011;31358;46.008;11.144;2022-11-18T00:32:41;6.68;;;3.55;;
45642;SDS011;31358;46.008;11.144;2022-11-18T00:35:07;8.25;;;4.30;;
45642;SDS011;31358;46.008;11.144;2022-11-18T00:37:33;5.75;;;3.58;;
45642;SDS011;31358;46.008;11.144;2022-11-18T00:39:58;7.07;;;3.40;;
45642;SDS011;31358;46.008;11.144;2022-11-18T00:42:24;6.45;;;4.05;;
45642;SDS011;31358;46.008;11.144;2022-11-18T00:45:08;6.55;;;3.75;;
45642;SDS011;31358;46.008;11.144;2022-11-18T00:47:34;8.57;;;4.10;;
45642;SDS011;31358;46.008;11.144;2022-11-18T00:49:59;8.55;;;4.70;;
45642;SDS011;31358;46.008;11.144;2022-11-18T00:52:25;8.23;;;4.45;;
45642;SDS011;31358;46.008;11.144;2022-11-18T00:54:51;7.25;;;3.95;;
45642;SDS011;31358;46.008;11.144;2022-11-18T00:57:16;10.57;;;4.45;;
45642;SDS011;31358;46.008;11.144;2022-11-18T00:59:42;7.60;;;4.43;;
45642;SDS011;31358;46.008;11.144;2022-11-18T01:02:07;7.50;;;4.30;;
45642;SDS011;31358;46.008;11.144;2022-11-18T01:04:33;7.90;;;4.25;;
45642;SDS011;31358;46.008;11.144;2022-11-18T01:06:58;10.90;;;4.43;;
45642;SDS011;31358;46.008;11.144;2022-11-18T01:09:24;7.15;;;4.28;;
45642;SDS011;31358;46.008;11.144;2022-11-18T01:11:50;8.20;;;4.50;;
45642;SDS011;31358;46.008;11.144;2022-11-18T01:14:36;7.18;;;4.35;;
45642;SDS011;31358;46.008;11.144;2022-11-18T01:17:01;7.53;;;4.60;;
45642;SDS011;31358;46.008;11.144;2022-11-18T01:19:27;6.93;;;4.30;;
45642;SDS011;31358;46.008;11.144;2022-11-18T01:21:52;9.10;;;4.32;;
45642;SDS011;31358;46.008;11.144;2022-11-18T01:24:20;6.57;;;4.30;;
45642;SDS011;31358;46.008;11.144;2022-11-18T01:26:46;9.80;;;4.68;;
45642;SDS011;31358;46.008;11.144;2022-11-18T01:29:12;6.28;;;3.60;;
45642;SDS011;31358;46.008;11.144;2022-11-18T01:31:38;8.32;;;4.15;;
45642;SDS011;31358;46.008;11.144;2022-11-18T01:34:04;7.53;;;4.35;;
45642;SDS011;31358;46.008;11.144;2022-11-18T01:36:29;9.52;;;4.05;;
45642;SDS011;31358;46.008;11.144;2022-11-18T01:38:55;7.90;;;4.32;;
45642;SDS011;31358;46.008;11.144;2022-11-18T01:41:22;8.10;;;4.30;;
45642;SDS011;31358;46.008;11.144;2022-11-18T01:43:51;7.28;;;4.15;;
45642;SDS011;31358;46.008;11.144;2022-11-18T01:46:23;7.00;;;3.92;;
45642;SDS011;31358;46.008;11.144;2022-11-18T01:49:02;7.32;;;3.92;;
45642;SDS011;31358;46.008;11.144;2022-11-18T01:51:46;9.23;;;4.90;;
45642;SDS011;31358;46.008;11.144;2022-11-18T01:54:24;5.88;;;3.53;;
45642;SDS011;31358;46.008;11.144;2022-11-18T01:57:01;6.80;;;3.95;;
45642;SDS011;31358;46.008;11.144;2022-11-18T01:59:32;10.18;;;4.78;;
45642;SDS011;31358;46.008;11.144;2022-11-18T02:02:00;7.55;;;4.18;;
45642;SDS011;31358;46.008;11.144;2022-11-18T02:04:29;6.50;;;3.88;;
45642;SDS011;31358;46.008;11.144;2022-11-18T02:06:54;7.07;;;3.83;;
45642;SDS011;31358;46.008;11.144;2022-11-18T02:09:21;7.40;;;4.28;;
45642;SDS011;31358;46.008;11.144;2022-11-18T02:11:47;6.63;;;3.72;;
45642;SDS011;31358;46.008;11.144;2022-11-18T02:14:28;9.02;;;4.13;;
45642;SDS011;31358;46.008;11.144;2022-11-18T02:33:22;6.82;;;4.45;;
45642;SDS011;31358;46.008;11.144;2022-11-18T02:36:13;7.93;;;4.68;;
45642;SDS011;31358;46.008;11.144;2022-11-18T02:38:44;10.02;;;4.47;;
45642;SDS011;31358;46.008;11.144;2022-11-18T02:41:15;9.95;;;5.13;;
45642;SDS011;31358;46.008;11.144;2022-11-18T02:43:55;7.95;;;4.95;;
45642;SDS011;31358;46.008;11.144;2022-11-18T02:46:37;7.15;;;4.75;;
45642;SDS011;31358;46.008;11.144;2022-11-18T02:49:09;9.43;;;5.22;;
45642;SDS011;31358;46.008;11.144;2022-11-18T02:51:40;8.88;;;4.80;;
45642;SDS011;31358;46.008;11.144;2022-11-18T02:54:09;9.38;;;4.40;;
45642;SDS011;31358;46.008;11.144;2022-11-18T02:56:35;10.02;;;3.97;;
45642;SDS011;31358;46.008;11.144;2022-11-18T02:59:02;6.93;;;3.65;;
45642;SDS011;31358;46.008;11.144;2022-11-18T03:01:29;8.55;;;3.78;;
45642;SDS011;31358;46.008;11.144;2022-11-18T03:03:57;11.40;;;4.20;;
45642;SDS011;31358;46.008;11.144;2022-11-18T03:06:30;6.50;;;3.53;;
45642;SDS011;31358;46.008;11.144;2022-11-18T03:20:34;8.07;;;4.07;;
45642;SDS011;31358;46.008;11.144;2022-11-18T03:28:57;7.13;;;4.43;;
45642;SDS011;31358;46.008;11.144;2022-11-18T03:31:40;9.73;;;5.15;;
45642;SDS011;31358;46.008;11.144;2022-11-18T03:34:12;6.53;;;4.15;;
45642;SDS011;31358;46.008;11.144;2022-11-18T03:36:46;9.82;;;4.15;;
45642;SDS011;31358;46.008;11.144;2022-11-18T03:39:15;6.28;;;3.75;;
45642;SDS011;31358;46.008;11.144;2022-11-18T03:41:46;9.70;;;3.38;;
45642;SDS011;31358;46.008;11.144;2022-11-18T03:44:20;6.65;;;3.42;;
45642;SDS011;31358;46.008;11.144;2022-11-18T03:46:54;7.28;;;3.92;;
45642;SDS011;31358;46.008;11.144;2022-11-18T03:49:32;6.78;;;4.25;;
45642;SDS011;31358;46.008;11.144;2022-11-18T03:52:05;8.93;;;4.00;;
45642;SDS011;31358;46.008;11.144;2022-11-18T03:54:35;5.65;;;3.75;;
45642;SDS011;31358;46.008;11.144;2022-11-18T03:57:12;7.63;;;3.95;;
45642;SDS011;31358;46.008;11.144;2022-11-18T03:59:44;7.63;;;4.30;;
45642;SDS011;31358;46.008;11.144;2022-11-18T04:02:14;9.32;;;3.90;;
45642;SDS011;31358;46.008;11.144;2022-11-18T04:04:46;7.15;;;3.42;;
45642;SDS011;31358;46.008;11.144;2022-11-18T04:07:17;8.48;;;3.50;;
45642;SDS011;31358;46.008;11.144;2022-11-18T04:10:02;9.05;;;4.35;;
45642;SDS011;31358;46.008;11.144;2022-11-18T04:12:50;6.47;;;3.60;;
45642;SDS011;31358;46.008;11.144;2022-11-18T04:15:25;7.88;;;3.95;;
45642;SDS011;31358;46.008;11.144;2022-11-18T04:17:54;7.65;;;3.53;;
45642;SDS011;31358;46.008;11.144;2022-11-18T04:20:20;7.30;;;3.92;;
45642;SDS011;31358;46.008;11.144;2022-11-18T04:22:47;7.05;;;4.20;;
45642;SDS011;31358;46.008;11.144;2022-11-18T04:25:13;7.38;;;3.55;;
45642;SDS011;31358;46.008;11.144;2022-11-18T04:27:39;9.02;;;3.95;;
45642;SDS011;31358;46.008;11.144;2022-11-18T04:30:05;7.20;;;3.42;;
45642;SDS011;31358;46.008;11.144;2022-11-18T04:32:31;6.40;;;3.38;;
45642;SDS011;31358;46.008;11.144;2022-11-18T04:34:58;8.05;;;3.72;;
45642;SDS011;31358;46.008;11.144;2022-11-18T04:37:23;7.60;;;3.70;;
45642;SDS011;31358;46.008;11.144;2022-11-18T04:39:50;6.53;;;4.05;;
45642;SDS011;31358;46.008;11.144;2022-11-18T04:42:15;8.60;;;3.28;;
45642;SDS011;31358;46.008;11.144;2022-11-18T04:44:41;5.47;;;3.00;;
45642;SDS011;31358;46.008;11.144;2022-11-18T04:47:07;6.30;;;3.00;;
45642;SDS011;31358;46.008;11.144;2022-11-18T04:49:33;6.25;;;3.38;;
45642;SDS011;31358;46.008;11.144;2022-11-18T04:51:59;7.35;;;3.55;;
45642;SDS011;31358;46.008;11.144;2022-11-18T04:54:26;7.10;;;3.63;;
45642;SDS011;31358;46.008;11.144;2022-11-18T04:56:52;7.18;;;4.43;;
45642;SDS011;31358;46.008;11.144;2022-11-18T04:59:23;7.75;;;4.03;;
45642;SDS011;31358;46.008;11.144;2022-11-18T05:01:51;7.63;;;3.45;;
45642;SDS011;31358;46.008;11.144;2022-11-18T05:04:18;6.28;;;3.72;;
45642;SDS011;31358;46.008;11.144;2022-11-18T05:06:45;8.05;;;4.22;;
45642;SDS011;31358;46.008;11.144;2022-11-18T05:09:11;5.65;;;3.20;;
45642;SDS011;31358;46.008;11.144;2022-11-18T05:11:37;5.70;;;2.88;;
45642;SDS011;31358;46.008;11.144;2022-11-18T05:14:25;9.55;;;3.33;;
45642;SDS011;31358;46.008;11.144;2022-11-18T05:16:52;8.25;;;3.80;;
45642;SDS011;31358;46.008;11.144;2022-11-18T05:19:19;7.72;;;3.67;;
45642;SDS011;31358;46.008;11.144;2022-11-18T05:21:44;8.13;;;4.63;;
45642;SDS011;31358;46.008;11.144;2022-11-18T05:24:10;17.75;;;6.10;;
45642;SDS011;31358;46.008;11.144;2022-11-18T05:26:36;15.63;;;8.10;;
45642;SDS011;31358;46.008;11.144;2022-11-18T05:29:01;12.60;;;7.68;;
45642;SDS011;31358;46.008;11.144;2022-11-18T05:31:28;12.93;;;6.95;;
45642;SDS011;31358;46.008;11.144;2022-11-18T05:33:54;12.63;;;6.85;;
45642;SDS011;31358;46.008;11.144;2022-11-18T05:36:20;10.60;;;6.15;;
45642;SDS011;31358;46.008;11.144;2022-11-18T05:38:46;11.05;;;5.32;;
45642;SDS011;31358;46.008;11.144;2022-11-18T05:41:12;5.22;;;3.80;;
45642;SDS011;31358;46.008;11.144;2022-11-18T05:43:58;7.53;;;4.45;;
45642;SDS011;31358;46.008;11.144;2022-11-18T05:46:23;8.32;;;4.25;;
45642;SDS011;31358;46.008;11.144;2022-11-18T05:48:50;11.73;;;4.88;;
45642;SDS011;31358;46.008;11.144;2022-11-18T05:51:16;7.43;;;4.28;;
45642;SDS011;31358;46.008;11.144;2022-11-18T05:53:42;8.25;;;3.97;;
45642;SDS011;31358;46.008;11.144;2022-11-18T06:01:09;7.30;;;3.60;;
45642;SDS011;31358;46.008;11.144;2022-11-18T06:03:37;8.02;;;3.40;;
45642;SDS011;31358;46.008;11.144;2022-11-18T06:06:05;5.72;;;3.53;;
45642;SDS011;31358;46.008;11.144;2022-11-18T06:08:34;10.98;;;4.72;;
45642;SDS011;31358;46.008;11.144;2022-11-18T06:11:06;5.88;;;3.17;;
45642;SDS011;31358;46.008;11.144;2022-11-18T06:13:39;7.20;;;3.72;;
45642;SDS011;31358;46.008;11.144;2022-11-18T06:16:15;7.60;;;4.05;;
45642;SDS011;31358;46.008;11.144;2022-11-18T06:18:44;7.50;;;3.38;;
45642;SDS011;31358;46.008;11.144;2022-11-18T06:21:10;7.35;;;3.33;;
45642;SDS011;31358;46.008;11.144;2022-11-18T06:23:36;7.05;;;3.30;;
45642;SDS011;31358;46.008;11.144;2022-11-18T06:26:04;5.70;;;3.38;;
45642;SDS011;31358;46.008;11.144;2022-11-18T06:28:31;11.18;;;6.35;;
45642;SDS011;31358;46.008;11.144;2022-11-18T06:30:57;6.55;;;4.00;;
45642;SDS011;31358;46.008;11.144;2022-11-18T06:33:23;6.65;;;4.00;;
45642;SDS011;31358;46.008;11.144;2022-11-18T06:35:49;10.57;;;4.47;;
45642;SDS011;31358;46.008;11.144;2022-11-18T06:38:14;7.55;;;3.35;;
45642;SDS011;31358;46.008;11.144;2022-11-18T06:40:40;5.57;;;2.53;;
45642;SDS011;31358;46.008;11.144;2022-11-18T06:43:09;8.20;;;4.30;;
45642;SDS011;31358;46.008;11.144;2022-11-18T06:45:57;6.03;;;2.85;;
45642;SDS011;31358;46.008;11.144;2022-11-18T06:48:42;5.43;;;3.10;;
45642;SDS011;31358;46.008;11.144;2022-11-18T06:51:07;9.88;;;4.13;;
45642;SDS011;31358;46.008;11.144;2022-11-18T06:53:33;7.38;;;3.60;;
45642;SDS011;31358;46.008;11.144;2022-11-18T06:56:03;10.60;;;3.53;;
45642;SDS011;31358;46.008;11.144;2022-11-18T06:58:30;5.40;;;3.15;;
45642;SDS011;31358;46.008;11.144;2022-11-18T07:00:55;7.22;;;3.25;;
45642;SDS011;31358;46.008;11.144;2022-11-18T07:03:21;9.82;;;4.68;;
45642;SDS011;31358;46.008;11.144;2022-11-18T07:05:47;5.57;;;3.20;;
45642;SDS011;31358;46.008;11.144;2022-11-18T07:08:12;7.07;;;3.25;;
45642;SDS011;31358;46.008;11.144;2022-11-18T07:10:38;9.55;;;3.15;;
45642;SDS011;31358;46.008;11.144;2022-11-18T07:13:04;8.70;;;5.28;;
45642;SDS011;31358;46.008;11.144;2022-11-18T07:15:29;7.30;;;3.97;;
45642;SDS011;31358;46.008;11.144;2022-11-18T07:17:55;15.50;;;7.57;;
45642;SDS011;31358;46.008;11.144;2022-11-18T07:20:20;8.90;;;4.88;;
45642;SDS011;31358;46.008;11.144;2022-11-18T07:22:46;6.60;;;3.78;;
45642;SDS011;31358;46.008;11.144;2022-11-18T07:25:12;7.68;;;3.28;;
45642;SDS011;31358;46.008;11.144;2022-11-18T07:27:37;5.32;;;3.05;;
45642;SDS011;31358;46.008;11.144;2022-11-18T07:30:03;10.57;;;3.45;;
45642;SDS011;31358;46.008;11.144;2022-11-18T07:32:31;5.43;;;3.38;;
45642;SDS011;31358;46.008;11.144;2022-11-18T07:34:57;6.28;;;2.95;;
45642;SDS011;31358;46.008;11.144;2022-11-18T07:37:23;6.47;;;3.47;;
45642;SDS011;31358;46.008;11.144;2022-11-18T07:39:48;9.07;;;3.45;;
45642;SDS011;31358;46.008;11.144;2022-11-18T07:42:14;5.93;;;3.03;;
45642;SDS011;31358;46.008;11.144;2022-11-18T07:44:39;5.65;;;3.10;;
45642;SDS011;31358;46.008;11.144;2022-11-18T07:47:05;6.03;;;3.55;;
45642;SDS011;31358;46.008;11.144;2022-11-18T07:49:31;9.48;;;3.35;;
45642;SDS011;31358;46.008;11.144;2022-11-18T07:51:56;7.28;;;3.45;;
45642;SDS011;31358;46.008;11.144;2022-11-18T07:54:22;4.90;;;2.90;;
45642;SDS011;31358;46.008;11.144;2022-11-18T07:56:47;5.47;;;2.85;;
45642;SDS011;31358;46.008;11.144;2022-11-18T07:59:13;4.85;;;2.63;;
45642;SDS011;31358;46.008;11.144;2022-11-18T08:01:39;4.72;;;2.70;;
45642;SDS011;31358;46.008;11.144;2022-11-18T08:04:13;7.68;;;2.42;;
45642;SDS011;31358;46.008;11.144;2022-11-18T08:06:39;6.18;;;2.60;;
45642;SDS011;31358;46.008;11.144;2022-11-18T08:09:05;5.38;;;2.90;;
45642;SDS011;31358;46.008;11.144;2022-11-18T08:11:32;5.50;;;2.53;;
45642;SDS011;31358;46.008;11.144;2022-11-18T08:13:58;4.10;;;2.33;;
45642;SDS011;31358;46.008;11.144;2022-11-18T08:16:24;6.03;;;2.85;;
45642;SDS011;31358;46.008;11.144;2022-11-18T08:18:50;6.40;;;2.45;;
45642;SDS011;31358;46.008;11.144;2022-11-18T08:21:17;6.70;;;2.92;;
45642;SDS011;31358;46.008;11.144;2022-11-18T08:23:47;5.82;;;2.58;;
45642;SDS011;31358;46.008;11.144;2022-11-18T08:26:17;3.70;;;2.53;;
45642;SDS011;31358;46.008;11.144;2022-11-18T08:28:44;7.28;;;3.00;;
45642;SDS011;31358;46.008;11.144;2022-11-18T08:31:10;8.25;;;3.97;;
45642;SDS011;31358;46.008;11.144;2022-11-18T08:33:38;6.63;;;3.78;;
45642;SDS011;31358;46.008;11.144;2022-11-18T08:36:11;6.60;;;3.17;;
45642;SDS011;31358;46.008;11.144;2022-11-18T08:38:43;5.55;;;3.00;;
45642;SDS011;31358;46.008;11.144;2022-11-18T08:41:10;7.25;;;2.70;;
45642;SDS011;31358;46.008;11.144;2022-11-18T08:43:38;4.63;;;2.40;;
45642;SDS011;31358;46.008;11.144;2022-11-18T08:46:03;5.10;;;2.45;;
45642;SDS011;31358;46.008;11.144;2022-11-18T08:48:29;6.35;;;3.75;;
45642;SDS011;31358;46.008;11.144;2022-11-18T08:50:56;6.35;;;3.70;;
45642;SDS011;31358;46.008;11.144;2022-11-18T08:53:23;9.27;;;4.00;;
45642;SDS011;31358;46.008;11.144;2022-11-18T08:55:53;10.82;;;4.43;;
45642;SDS011;31358;46.008;11.144;2022-11-18T08:58:23;5.70;;;3.33;;
45642;SDS011;31358;46.008;11.144;2022-11-18T09:00:49;5.43;;;2.28;;
45642;SDS011;31358;46.008;11.144;2022-11-18T09:03:14;5.88;;;2.05;;
45642;SDS011;31358;46.008;11.144;2022-11-18T09:05:40;6.10;;;2.50;;
45642;SDS011;31358;46.008;11.144;2022-11-18T09:08:05;8.43;;;4.00;;
45642;SDS011;31358;46.008;11.144;2022-11-18T09:10:31;7.07;;;4.50;;
45642;SDS011;31358;46.008;11.144;2022-11-18T09:12:58;9.70;;;4.28;;
45642;SDS011;31358;46.008;11.144;2022-11-18T09:15:24;7.60;;;4.25;;
45642;SDS011;31358;46.008;11.144;2022-11-18T09:17:51;9.65;;;4.85;;
45642;SDS011;31358;46.008;11.144;2022-11-18T09:20:17;11.18;;;4.35;;
45642;SDS011;31358;46.008;11.144;2022-11-18T09:22:42;7.60;;;3.83;;
45642;SDS011;31358;46.008;11.144;2022-11-18T09:25:08;4.70;;;2.25;;
45642;SDS011;31358;46.008;11.144;2022-11-18T09:27:34;7.43;;;2.58;;
45642;SDS011;31358;46.008;11.144;2022-11-18T09:30:00;4.32;;;2.30;;
45642;SDS011;31358;46.008;11.144;2022-11-18T09:32:25;3.83;;;1.45;;
45642;SDS011;31358;46.008;11.144;2022-11-18T09:34:51;3.10;;;1.38;;
45642;SDS011;31358;46.008;11.144;2022-11-18T09:37:17;4.75;;;1.83;;
45642;SDS011;31358;46.008;11.144;2022-11-18T09:39:43;3.67;;;1.70;;
45642;SDS011;31358;46.008;11.144;2022-11-18T09:45:02;7.15;;;3.58;;
45642;SDS011;31358;46.008;11.144;2022-11-18T09:47:30;7.70;;;3.95;;
45642;SDS011;31358;46.008;11.144;2022-11-18T09:50:14;7.00;;;4.30;;
45642;SDS011;31358;46.008;11.144;2022-11-18T09:55:30;6.20;;;2.80;;
45642;SDS011;31358;46.008;11.144;2022-11-18T09:57:58;6.05;;;2.38;;
45642;SDS011;31358;46.008;11.144;2022-11-18T10:00:26;4.90;;;2.78;;
45642;SDS011;31358;46.008;11.144;2022-11-18T10:03:03;3.58;;;1.50;;
45642;SDS011;31358;46.008;11.144;2022-11-18T10:16:23;5.50;;;3.28;;
45642;SDS011;31358;46.008;11.144;2022-11-18T10:24:34;7.25;;;5.03;;
45642;SDS011;31358;46.008;11.144;2022-11-18T10:27:07;6.55;;;4.10;;
45642;SDS011;31358;46.008;11.144;2022-11-18T10:29:35;13.45;;;7.97;;
45642;SDS011;31358;46.008;11.144;2022-11-18T10:34:28;3.83;;;2.10;;
45642;SDS011;31358;46.008;11.144;2022-11-18T10:37:06;4.75;;;2.33;;
45642;SDS011;31358;46.008;11.144;2022-11-18T10:39:52;5.15;;;2.47;;
45642;SDS011;31358;46.008;11.144;2022-11-18T10:42:23;4.68;;;2.72;;
45642;SDS011;31358;46.008;11.144;2022-11-18T10:44:55;5.10;;;3.15;;
45642;SDS011;31358;46.008;11.144;2022-11-18T10:47:41;5.00;;;2.00;;
45642;SDS011;31358;46.008;11.144;2022-11-18T10:52:54;6.53;;;3.10;;
45642;SDS011;31358;46.008;11.144;2022-11-18T10:55:21;9.95;;;3.33;;
45642;SDS011;31358;46.008;11.144;2022-11-18T10:57:49;4.72;;;2.42;;
45642;SDS011;31358;46.008;11.144;2022-11-18T11:00:48;4.35;;;2.30;;
45642;SDS011;31358;46.008;11.144;2022-11-18T11:03:36;5.18;;;2.20;;
45642;SDS011;31358;46.008;11.144;2022-11-18T11:09:00;5.90;;;2.10;;
45642;SDS011;31358;46.008;11.144;2022-11-18T11:17:22;3.45;;;1.73;;
45642;SDS011;31358;46.008;11.144;2022-11-18T11:22:41;2.97;;;1.70;;
45642;SDS011;31358;46.008;11.144;2022-11-18T11:25:14;3.03;;;1.30;;
45642;SDS011;31358;46.008;11.144;2022-11-18T11:28:14;4.80;;;1.77;;
45642;SDS011;31358;46.008;11.144;2022-11-18T11:30:34;5.82;;;2.08;;
45642;SDS011;31358;46.008;11.144;2022-11-18T11:33:18;4.90;;;1.75;;
45642;SDS011;31358;46.008;11.144;2022-11-18T11:44:11;3.35;;;1.70;;
45642;SDS011;31358;46.008;11.144;2022-11-18T11:47:09;2.45;;;1.23;;
45642;SDS011;31358;46.008;11.144;2022-11-18T12:00:59;3.50;;;1.67;;
45642;SDS011;31358;46.008;11.144;2022-11-18T12:03:39;3.67;;;1.33;;
45642;SDS011;31358;46.008;11.144;2022-11-18T12:06:14;3.60;;;1.55;;
45642;SDS011;31358;46.008;11.144;2022-11-18T12:08:47;4.38;;;1.95;;
45642;SDS011;31358;46.008;11.144;2022-11-18T12:11:26;3.80;;;1.70;;
45642;SDS011;31358;46.008;11.144;2022-11-18T12:14:03;3.60;;;1.50;;
45642;SDS011;31358;46.008;11.144;2022-11-18T12:19:56;3.72;;;1.70;;
45642;SDS011;31358;46.008;11.144;2022-11-18T12:22:21;3.45;;;1.45;;
45642;SDS011;31358;46.008;11.144;2022-11-18T12:24:47;3.13;;;1.50;;
45642;SDS011;31358;46.008;11.144;2022-11-18T12:27:14;4.78;;;2.20;;
45642;SDS011;31358;46.008;11.144;2022-11-18T12:30:02;4.43;;;1.92;;
45642;SDS011;31358;46.008;11.144;2022-11-18T12:32:33;3.10;;;1.50;;
45642;SDS011;31358;46.008;11.144;2022-11-18T12:46:56;3.25;;;1.42;;
45642;SDS011;31358;46.008;11.144;2022-11-18T12:51:47;2.22;;;1.00;;
45642;SDS011;31358;46.008;11.144;2022-11-18T12:57:03;3.08;;;1.13;;
45642;SDS011;31358;46.008;11.144;2022-11-18T12:59:39;1.85;;;0.60;;
45642;SDS011;31358;46.008;11.144;2022-11-18T13:02:15;5.60;;;1.52;;
45642;SDS011;31358;46.008;11.144;2022-11-18T13:05:04;1.77;;;0.90;;
45642;SDS011;31358;46.008;11.144;2022-11-18T13:07:55;2.75;;;1.13;;
45642;SDS011;31358;46.008;11.144;2022-11-18T13:15:51;3.45;;;1.30;;
45642;SDS011;31358;46.008;11.144;2022-11-18T13:18:50;3.03;;;1.50;;
45642;SDS011;31358;46.008;11.144;2022-11-18T13:21:22;4.68;;;1.08;;
45642;SDS011;31358;46.008;11.144;2022-11-18T13:24:15;2.13;;;1.10;;
45642;SDS011;31358;46.008;11.144;2022-11-18T13:26:46;3.70;;;1.58;;
45642;SDS011;31358;46.008;11.144;2022-11-18T13:34:50;7.82;;;2.08;;
45642;SDS011;31358;46.008;11.144;2022-11-18T13:37:31;4.25;;;1.88;;
45642;SDS011;31358;46.008;11.144;2022-11-18T13:40:00;5.50;;;2.67;;
45642;SDS011;31358;46.008;11.144;2022-11-18T13:42:27;4.45;;;2.03;;
45642;SDS011;31358;46.008;11.144;2022-11-18T13:44:55;7.03;;;1.90;;
45642;SDS011;31358;46.008;11.144;2022-11-18T13:52:23;4.70;;;2.38;;
45642;SDS011;31358;46.008;11.144;2022-11-18T13:55:14;1.73;;;1.08;;
45642;SDS011;31358;46.008;11.144;2022-11-18T13:57:49;5.72;;;1.77;;
45642;SDS011;31358;46.008;11.144;2022-11-18T14:00:21;5.68;;;2.00;;
45642;SDS011;31358;46.008;11.144;2022-11-18T14:03:34;4.78;;;2.00;;
45642;SDS011;31358;46.008;11.144;2022-11-18T14:05:53;3.20;;;1.63;;
45642;SDS011;31358;46.008;11.144;2022-11-18T14:08:23;3.42;;;1.40;;
45642;SDS011;31358;46.008;11.144;2022-11-18T14:10:57;6.35;;;1.60;;
45642;SDS011;31358;46.008;11.144;2022-11-18T14:16:37;3.45;;;1.60;;
45642;SDS011;31358;46.008;11.144;2022-11-18T14:18:44;4.07;;;1.60;;
45642;SDS011;31358;46.008;11.144;2022-11-18T14:21:12;4.15;;;1.35;;
45642;SDS011;31358;46.008;11.144;2022-11-18T14:23:49;3.20;;;1.55;;
45642;SDS011;31358;46.008;11.144;2022-11-18T14:26:16;3.78;;;1.20;;
45642;SDS011;31358;46.008;11.144;2022-11-18T14:28:53;4.95;;;1.30;;
45642;SDS011;31358;46.008;11.144;2022-11-18T14:31:27;3.30;;;1.10;;
45642;SDS011;31358;46.008;11.144;2022-11-18T14:36:50;2.63;;;1.17;;
45642;SDS011;31358;46.008;11.144;2022-11-18T14:41:55;2.35;;;1.08;;
45642;SDS011;31358;46.008;11.144;2022-11-18T14:44:22;4.75;;;1.58;;
45642;SDS011;31358;46.008;11.144;2022-11-18T14:46:50;2.95;;;0.85;;
45642;SDS011;31358;46.008;11.144;2022-11-18T14:49:22;3.22;;;1.33;;
45642;SDS011;31358;46.008;11.144;2022-11-18T14:51:49;2.83;;;1.00;;
45642;SDS011;31358;46.008;11.144;2022-11-18T14:54:17;3.60;;;1.67;;
45642;SDS011;31358;46.008;11.144;2022-11-18T14:56:43;3.92;;;1.20;;
45642;SDS011;31358;46.008;11.144;2022-11-18T14:59:12;1.85;;;0.68;;
45642;SDS011;31358;46.008;11.144;2022-11-18T15:01:39;3.78;;;1.00;;
45642;SDS011;31358;46.008;11.144;2022-11-18T15:04:05;3.10;;;1.42;;
45642;SDS011;31358;46.008;11.144;2022-11-18T15:06:31;3.35;;;1.10;;
45642;SDS011;31358;46.008;11.144;2022-11-18T15:08:57;6.78;;;3.00;;
45642;SDS011;31358;46.008;11.144;2022-11-18T15:11:22;5.22;;;2.38;;
45642;SDS011;31358;46.008;11.144;2022-11-18T15:13:48;5.03;;;2.40;;
45642;SDS011;31358;46.008;11.144;2022-11-18T15:16:15;5.07;;;2.70;;
45642;SDS011;31358;46.008;11.144;2022-11-18T15:18:46;6.35;;;2.58;;
45642;SDS011;31358;46.008;11.144;2022-11-18T15:21:14;6.30;;;2.42;;
45642;SDS011;31358;46.008;11.144;2022-11-18T15:23:40;3.78;;;1.70;;
45642;SDS011;31358;46.008;11.144;2022-11-18T15:26:22;3.28;;;1.60;;
45642;SDS011;31358;46.008;11.144;2022-11-18T15:28:53;4.07;;;1.50;;
45642;SDS011;31358;46.008;11.144;2022-11-18T15:31:19;4.28;;;1.70;;
45642;SDS011;31358;46.008;11.144;2022-11-18T15:33:46;3.70;;;1.38;;
45642;SDS011;31358;46.008;11.144;2022-11-18T15:36:20;4.82;;;1.10;;
45642;SDS011;31358;46.008;11.144;2022-11-18T15:38:48;3.72;;;1.38;;
45642;SDS011;31358;46.008;11.144;2022-11-18T15:41:15;4.10;;;1.15;;
45642;SDS011;31358;46.008;11.144;2022-11-18T15:43:49;3.15;;;1.23;;
45642;SDS011;31358;46.008;11.144;2022-11-18T15:46:16;3.67;;;1.63;;
45642;SDS011;31358;46.008;11.144;2022-11-18T15:48:45;3.03;;;1.50;;
45642;SDS011;31358;46.008;11.144;2022-11-18T15:51:12;3.83;;;1.33;;
45642;SDS011;31358;46.008;11.144;2022-11-18T15:53:38;3.42;;;1.08;;
45642;SDS011;31358;46.008;11.144;2022-11-18T15:58:50;4.80;;;1.40;;
45642;SDS011;31358;46.008;11.144;2022-11-18T16:01:17;2.08;;;0.98;;
45642;SDS011;31358;46.008;11.144;2022-11-18T16:03:43;4.03;;;1.48;;
45642;SDS011;31358;46.008;11.144;2022-11-18T16:06:09;2.25;;;1.25;;
45642;SDS011;31358;46.008;11.144;2022-11-18T16:08:35;3.20;;;1.27;;
45642;SDS011;31358;46.008;11.144;2022-11-18T16:11:00;1.58;;;0.80;;
45642;SDS011;31358;46.008;11.144;2022-11-18T16:13:44;2.73;;;0.90;;
45642;SDS011;31358;46.008;11.144;2022-11-18T16:16:17;2.05;;;0.90;;
45642;SDS011;31358;46.008;11.144;2022-11-18T16:18:46;2.00;;;0.95;;
45642;SDS011;31358;46.008;11.144;2022-11-18T16:21:12;5.55;;;1.08;;
45642;SDS011;31358;46.008;11.144;2022-11-18T16:23:38;3.72;;;1.40;;
45642;SDS011;31358;46.008;11.144;2022-11-18T16:26:04;2.45;;;0.90;;
45642;SDS011;31358;46.008;11.144;2022-11-18T16:28:30;2.10;;;0.98;;
45642;SDS011;31358;46.008;11.144;2022-11-18T16:30:55;3.13;;;1.05;;
45642;SDS011;31358;46.008;11.144;2022-11-18T16:33:40;2.75;;;1.35;;
45642;SDS011;31358;46.008;11.144;2022-11-18T16:36:05;2.28;;;0.95;;
45642;SDS011;31358;46.008;11.144;2022-11-18T16:38:31;2.63;;;0.90;;
45642;SDS011;31358;46.008;11.144;2022-11-18T16:40:57;1.95;;;0.80;;
45642;SDS011;31358;46.008;11.144;2022-11-18T16:43:24;2.75;;;0.82;;
45642;SDS011;31358;46.008;11.144;2022-11-18T16:45:51;2.53;;;0.93;;
45642;SDS011;31358;46.008;11.144;2022-11-18T16:48:17;3.22;;;1.60;;
45642;SDS011;31358;46.008;11.144;2022-11-18T16:50:48;3.67;;;1.73;;
45642;SDS011;31358;46.008;11.144;2022-11-18T16:53:23;3.15;;;1.35;;
45642;SDS011;31358;46.008;11.144;2022-11-18T16:55:49;5.75;;;1.30;;
45642;SDS011;31358;46.008;11.144;2022-11-18T16:58:15;2.85;;;0.70;;
45642;SDS011;31358;46.008;11.144;2022-11-18T17:00:40;2.30;;;1.00;;
45642;SDS011;31358;46.008;11.144;2022-11-18T17:03:06;2.05;;;0.95;;
45642;SDS011;31358;46.008;11.144;2022-11-18T17:05:32;3.08;;;1.02;;
45642;SDS011;31358;46.008;11.144;2022-11-18T17:07:59;2.95;;;1.10;;
45642;SDS011;31358;46.008;11.144;2022-11-18T17:10:25;6.35;;;2.10;;
45642;SDS011;31358;46.008;11.144;2022-11-18T17:12:50;1.90;;;0.90;;